createdAt,value
2023-05-12T00:01:27.370Z,6.43
2023-05-12T00:03:54.263Z,6.20
2023-05-12T00:06:21.741Z,6.28
2023-05-12T00:08:48.342Z,6.62
2023-05-12T00:11:14.920Z,6.33
2023-05-12T00:13:41.517Z,6.29
2023-05-12T00:16:08.152Z,6.29
2023-05-12T00:18:34.818Z,6.20
2023-05-12T00:21:01.436Z,6.09
2023-05-12T00:23:28.001Z,6.06
2023-05-12T00:25:54.505Z,5.94
2023-05-12T00:28:21.056Z,5.96
2023-05-12T00:30:47.566Z,6.45
2023-05-12T00:33:14.329Z,6.18
2023-05-12T00:35:40.856Z,6.07
2023-05-12T00:38:07.354Z,6.14
2023-05-12T00:40:34.053Z,6.07
2023-05-12T00:43:00.636Z,5.88
2023-05-12T00:45:29.340Z,5.64
2023-05-12T00:47:57.331Z,5.71
2023-05-12T00:50:24.563Z,5.43
2023-05-12T00:52:51.889Z,5.42
2023-05-12T00:55:19.132Z,5.68
2023-05-12T00:57:45.790Z,5.50
2023-05-12T01:00:12.875Z,5.56
2023-05-12T01:02:40.072Z,5.81
2023-05-12T01:05:07.066Z,6.08
2023-05-12T01:07:33.712Z,6.01
2023-05-12T01:10:00.380Z,5.93
2023-05-12T01:12:28.094Z,6.02
2023-05-12T01:14:56.362Z,6.06
2023-05-12T01:17:30.551Z,5.96
2023-05-12T01:20:00.494Z,5.51
2023-05-12T01:22:31.156Z,5.46
2023-05-12T01:25:01.741Z,5.70
2023-05-12T01:27:29.463Z,5.50
2023-05-12T01:29:58.654Z,5.36
2023-05-12T01:32:25.473Z,5.29
2023-05-12T01:34:52.663Z,5.44
2023-05-12T01:37:19.322Z,5.43
2023-05-12T01:39:45.911Z,5.25
2023-05-12T01:42:12.459Z,5.56
2023-05-12T01:44:38.995Z,5.59
2023-05-12T01:47:05.541Z,5.43
2023-05-12T01:49:32.095Z,5.66
2023-05-12T01:51:58.622Z,5.53
2023-05-12T01:54:25.201Z,5.42
2023-05-12T01:56:51.775Z,5.18
2023-05-12T01:59:18.359Z,5.04
2023-05-12T02:01:44.985Z,5.09
2023-05-12T02:04:11.931Z,4.77
2023-05-12T02:06:38.657Z,4.70
2023-05-12T02:09:05.200Z,4.89
2023-05-12T02:11:31.754Z,4.46
2023-05-12T02:13:58.626Z,4.26
2023-05-12T02:16:25.644Z,4.04
2023-05-12T02:18:52.339Z,4.16
2023-05-12T02:21:18.926Z,3.94
2023-05-12T02:23:45.484Z,3.92
2023-05-12T02:26:12.142Z,4.09
2023-05-12T02:28:38.816Z,3.68
2023-05-12T02:31:05.390Z,3.84
2023-05-12T02:33:31.959Z,3.91
2023-05-12T02:35:58.465Z,3.92
2023-05-12T02:38:25.021Z,4.07
2023-05-12T02:40:51.532Z,4.19
2023-05-12T02:43:18.101Z,4.43
2023-05-12T02:45:44.877Z,4.41
2023-05-12T02:48:11.462Z,4.45
2023-05-12T02:50:38.033Z,4.55
2023-05-12T02:53:04.570Z,4.62
2023-05-12T02:55:31.132Z,4.56
2023-05-12T02:57:57.651Z,5.19
2023-05-12T03:00:24.281Z,5.24
2023-05-12T03:02:50.916Z,5.43
2023-05-12T03:05:17.715Z,5.58
2023-05-12T03:07:44.455Z,5.96
2023-05-12T03:10:11.082Z,5.98
2023-05-12T03:12:37.672Z,6.11
2023-05-12T03:15:04.654Z,6.27
2023-05-12T03:17:31.440Z,6.42
2023-05-12T03:19:57.958Z,6.63
2023-05-12T03:22:24.536Z,6.59
2023-05-12T03:24:51.744Z,7.06
2023-05-12T03:27:18.479Z,7.04
2023-05-12T03:29:45.878Z,7.55
2023-05-12T03:32:12.909Z,7.65
2023-05-12T03:34:39.625Z,8.39
2023-05-12T03:37:06.183Z,9.06
2023-05-12T03:39:32.702Z,9.38
2023-05-12T03:41:59.242Z,10.18
2023-05-12T03:44:25.748Z,10.50
2023-05-12T03:46:52.357Z,10.27
2023-05-12T03:49:18.947Z,11.04
2023-05-12T03:51:45.488Z,11.37
2023-05-12T03:54:12.052Z,11.08
2023-05-12T03:56:38.746Z,11.62
2023-05-12T03:59:05.358Z,11.73
2023-05-12T04:01:31.885Z,11.91
2023-05-12T04:03:58.505Z,11.80
2023-05-12T04:06:25.093Z,12.27
2023-05-12T04:08:51.671Z,12.58
2023-05-12T04:11:18.430Z,12.07
2023-05-12T04:13:45.185Z,12.96
2023-05-12T04:16:11.892Z,12.93
2023-05-12T04:18:38.648Z,13.05
2023-05-12T04:21:05.512Z,13.16
2023-05-12T04:23:32.132Z,13.61
2023-05-12T04:25:58.718Z,13.92
2023-05-12T04:28:25.265Z,14.32
2023-05-12T04:30:51.848Z,14.47
2023-05-12T04:33:18.484Z,14.74
2023-05-12T04:35:45.059Z,15.45
2023-05-12T04:38:11.589Z,15.38
2023-05-12T04:40:38.205Z,15.45
2023-05-12T04:43:04.839Z,15.68
2023-05-12T04:45:31.434Z,16.21
2023-05-12T04:47:58.062Z,16.23
2023-05-12T04:50:24.716Z,16.45
2023-05-12T04:52:52.115Z,17.13
2023-05-12T04:55:18.796Z,16.73
2023-05-12T04:57:45.635Z,16.92
2023-05-12T05:00:12.675Z,17.65
2023-05-12T05:02:39.472Z,17.63
2023-05-12T05:05:06.534Z,18.13
2023-05-12T05:07:33.189Z,18.31
2023-05-12T05:09:59.764Z,18.39
2023-05-12T05:12:26.291Z,18.36
2023-05-12T05:14:52.817Z,18.99
2023-05-12T05:17:19.424Z,19.15
2023-05-12T05:19:57.500Z,19.16
2023-05-12T05:22:25.765Z,19.35
2023-05-12T05:24:52.549Z,19.43
2023-05-12T05:27:19.123Z,19.26
2023-05-12T05:29:45.745Z,19.72
2023-05-12T05:32:12.330Z,19.91
2023-05-12T05:34:38.890Z,19.57
2023-05-12T05:37:05.655Z,20.03
2023-05-12T05:39:32.226Z,20.21
2023-05-12T05:41:58.769Z,20.42
2023-05-12T05:44:25.467Z,21.18
2023-05-12T05:46:52.162Z,20.51
2023-05-12T05:49:18.935Z,21.12
2023-05-12T05:51:45.490Z,21.09
2023-05-12T05:54:12.232Z,20.64
2023-05-12T05:56:38.900Z,21.05
2023-05-12T05:59:05.741Z,20.42
2023-05-12T06:01:32.850Z,20.62
2023-05-12T06:03:59.814Z,20.48
2023-05-12T06:06:26.424Z,21.07
2023-05-12T06:08:55.859Z,20.65
2023-05-12T06:11:22.523Z,21.30
2023-05-12T06:13:49.060Z,21.77
2023-05-12T06:16:15.654Z,21.16
2023-05-12T06:18:42.233Z,21.75
2023-05-12T06:21:09.584Z,21.73
2023-05-12T06:23:36.290Z,21.47
2023-05-12T06:26:03.195Z,20.85
2023-05-12T06:28:29.828Z,21.73
2023-05-12T06:30:56.412Z,22.08
2023-05-12T06:33:23.018Z,21.40
2023-05-12T06:35:49.528Z,22.11
2023-05-12T06:38:16.445Z,21.94
2023-05-12T06:40:43.137Z,21.75
2023-05-12T06:43:09.736Z,21.71
2023-05-12T06:45:36.584Z,21.95
2023-05-12T06:48:05.838Z,22.05
2023-05-12T06:50:32.500Z,22.04
2023-05-12T06:52:59.052Z,21.96
2023-05-12T06:55:25.679Z,21.85
2023-05-12T06:57:55.601Z,22.13
2023-05-12T07:00:26.359Z,22.17
2023-05-12T07:02:53.118Z,22.10
2023-05-12T07:05:20.125Z,21.98
2023-05-12T07:07:46.908Z,22.35
2023-05-12T07:10:13.468Z,22.05
2023-05-12T07:12:40.063Z,21.96
2023-05-12T07:15:07.346Z,22.14
2023-05-12T07:17:33.965Z,21.83
2023-05-12T07:20:00.700Z,22.08
2023-05-12T07:22:27.871Z,22.15
2023-05-12T07:24:54.381Z,22.04
2023-05-12T07:27:20.995Z,22.88
2023-05-12T07:29:47.529Z,21.93
2023-05-12T07:32:14.179Z,21.69
2023-05-12T07:34:43.921Z,21.99
2023-05-12T07:37:10.546Z,21.60
2023-05-12T07:39:37.156Z,21.60
2023-05-12T07:42:03.924Z,21.29
2023-05-12T07:44:30.944Z,21.27
2023-05-12T07:46:58.046Z,20.63
2023-05-12T07:49:24.812Z,20.58
2023-05-12T07:51:51.381Z,19.46
2023-05-12T07:54:17.915Z,19.68
2023-05-12T07:56:44.437Z,19.34
2023-05-12T07:59:11.829Z,18.81
2023-05-12T08:01:38.471Z,18.93
2023-05-12T08:04:05.331Z,19.26
2023-05-12T08:06:32.531Z,18.56
2023-05-12T08:08:59.285Z,17.66
2023-05-12T08:11:26.857Z,18.47
2023-05-12T08:13:53.953Z,18.51
2023-05-12T08:16:20.642Z,18.45
2023-05-12T08:18:47.308Z,18.31
2023-05-12T08:21:13.986Z,18.07
2023-05-12T08:23:41.949Z,18.03
2023-05-12T08:26:08.458Z,17.80
2023-05-12T08:28:35.033Z,17.23
2023-05-12T08:31:04.844Z,16.96
2023-05-12T08:33:31.785Z,16.63
2023-05-12T08:35:58.325Z,17.49
2023-05-12T08:38:24.903Z,17.00
2023-05-12T08:41:26.048Z,16.69
2023-05-12T08:43:53.187Z,16.69
2023-05-12T08:46:20.551Z,15.64
2023-05-12T08:48:50.653Z,15.24
2023-05-12T08:51:19.401Z,15.14
2023-05-12T08:53:47.710Z,15.09
2023-05-12T08:58:49.638Z,15.28
2023-05-12T09:01:17.486Z,14.57
2023-05-12T09:03:44.775Z,14.85
2023-05-12T09:06:12.298Z,14.66
2023-05-12T09:08:40.870Z,13.69
2023-05-12T09:11:12.123Z,13.25
2023-05-12T09:13:50.918Z,13.37
2023-05-12T09:16:23.668Z,12.73
2023-05-12T09:18:55.136Z,12.45
2023-05-12T09:21:22.358Z,12.22
2023-05-12T09:24:15.259Z,12.08
2023-05-12T09:26:55.796Z,11.63
2023-05-12T09:29:31.314Z,11.32
2023-05-12T09:32:01.972Z,10.71
2023-05-12T09:34:38.508Z,10.03
2023-05-12T09:37:06.725Z,9.21
2023-05-12T09:39:34.129Z,8.93
2023-05-12T09:42:00.763Z,9.38
2023-05-12T09:44:30.464Z,9.44
2023-05-12T09:47:06.207Z,10.25
2023-05-12T09:49:32.720Z,9.93
2023-05-12T09:51:59.863Z,9.93
2023-05-12T09:54:28.326Z,10.21
2023-05-12T09:57:00.214Z,9.94
2023-05-12T09:59:38.442Z,9.84
2023-05-12T10:02:09.747Z,9.87
2023-05-12T10:04:50.344Z,9.87
2023-05-12T10:07:19.263Z,8.88
2023-05-12T10:09:48.396Z,9.11
2023-05-12T10:12:16.531Z,9.03
2023-05-12T10:14:43.929Z,8.92
2023-05-12T10:17:10.979Z,8.79
2023-05-12T10:19:38.782Z,8.54
2023-05-12T10:22:05.875Z,9.04
2023-05-12T10:24:32.829Z,8.59
2023-05-12T10:27:01.685Z,8.58
2023-05-12T10:29:31.089Z,8.46
2023-05-12T10:31:58.524Z,8.37
2023-05-12T10:34:30.885Z,8.73
2023-05-12T10:36:58.306Z,7.60
2023-05-12T10:39:29.869Z,7.23
2023-05-12T10:42:08.369Z,7.39
2023-05-12T10:44:36.307Z,7.19
2023-05-12T10:47:13.640Z,6.84
2023-05-12T10:49:41.651Z,6.65
2023-05-12T10:52:11.689Z,6.82
2023-05-12T10:54:45.553Z,6.72
2023-05-12T10:57:18.852Z,7.02
2023-05-12T10:59:51.455Z,6.69
2023-05-12T11:02:20.845Z,6.13
2023-05-12T11:04:53.751Z,5.76
2023-05-12T11:07:30.666Z,5.28
2023-05-12T11:10:01.552Z,5.43
2023-05-12T11:12:32.564Z,6.00
2023-05-12T11:15:01.335Z,5.28
2023-05-12T11:17:28.222Z,5.29
2023-05-12T11:19:55.430Z,5.28
2023-05-12T11:22:23.230Z,4.98
2023-05-12T11:24:51.286Z,4.76
2023-05-12T11:27:19.881Z,4.91
2023-05-12T11:29:59.244Z,4.85
2023-05-12T11:32:26.220Z,5.03
2023-05-12T11:34:53.086Z,4.98
2023-05-12T11:37:21.030Z,4.95
2023-05-12T11:39:48.133Z,4.71
2023-05-12T11:42:16.311Z,4.78
2023-05-12T11:44:49.853Z,5.00
2023-05-12T11:47:17.780Z,4.79
2023-05-12T11:49:47.899Z,5.00
2023-05-12T11:52:14.835Z,5.37
2023-05-12T11:54:56.934Z,5.66
2023-05-12T11:57:31.757Z,5.67
2023-05-12T12:00:00.884Z,5.55
2023-05-12T12:02:28.183Z,5.94
2023-05-12T12:04:56.271Z,5.97
2023-05-12T12:07:34.002Z,5.61
2023-05-12T12:10:15.006Z,5.60
2023-05-12T12:12:42.194Z,5.28
2023-05-12T12:15:10.028Z,5.35
2023-05-12T12:17:37.440Z,5.29
2023-05-12T12:20:04.272Z,4.86
2023-05-12T12:22:34.179Z,5.57
2023-05-12T12:25:01.639Z,5.69
2023-05-12T12:27:28.208Z,5.79
2023-05-12T12:29:54.725Z,5.73
2023-05-12T12:32:21.251Z,5.71
2023-05-12T12:34:49.120Z,5.67
2023-05-12T12:37:16.098Z,5.54
2023-05-12T12:39:42.787Z,5.20
2023-05-12T12:42:09.482Z,5.17
2023-05-12T12:44:36.525Z,5.27
2023-05-12T12:47:03.359Z,5.03
2023-05-12T12:49:29.898Z,5.19
2023-05-12T12:51:56.449Z,5.11
2023-05-12T12:54:23.067Z,5.47
2023-05-12T12:56:50.315Z,5.36
2023-05-12T12:59:16.872Z,5.95
2023-05-12T13:01:43.488Z,5.78
2023-05-12T13:04:10.106Z,5.95
2023-05-12T13:06:36.988Z,6.02
2023-05-12T13:09:03.999Z,5.69
2023-05-12T13:11:30.626Z,5.97
2023-05-12T13:13:57.147Z,6.10
2023-05-12T13:16:23.699Z,5.87
2023-05-12T13:18:50.764Z,5.48
2023-05-12T13:21:18.679Z,5.73
2023-05-12T13:23:45.335Z,6.30
2023-05-12T13:26:11.939Z,6.59
2023-05-12T13:28:38.471Z,6.87
2023-05-12T13:31:05.966Z,6.72
2023-05-12T13:33:32.655Z,6.88
2023-05-12T13:35:59.272Z,5.70
2023-05-12T13:38:26.291Z,6.30
2023-05-12T13:40:53.045Z,5.89
2023-05-12T13:43:19.667Z,6.49
2023-05-12T13:45:46.277Z,6.28
2023-05-12T13:48:12.898Z,6.59
2023-05-12T13:50:39.525Z,6.80
2023-05-12T13:53:06.567Z,6.56
2023-05-12T13:55:34.212Z,6.54
2023-05-12T13:58:00.830Z,6.31
2023-05-12T14:00:29.773Z,6.10
2023-05-12T14:02:57.723Z,6.41
2023-05-12T14:05:24.694Z,6.74
2023-05-12T14:07:51.465Z,6.23
2023-05-12T14:10:18.589Z,5.61
2023-05-12T14:12:45.399Z,6.00
2023-05-12T14:17:46.311Z,5.84
2023-05-12T14:20:13.126Z,5.65
2023-05-12T14:22:39.716Z,6.05
2023-05-12T14:25:06.551Z,6.17
2023-05-12T14:27:33.120Z,6.05
2023-05-12T14:29:59.702Z,6.53
2023-05-12T14:32:26.658Z,6.57
2023-05-12T14:34:53.363Z,6.47
2023-05-12T14:37:19.936Z,6.32
2023-05-12T14:39:46.590Z,6.60
2023-05-12T14:42:13.117Z,6.66
2023-05-12T14:44:39.746Z,6.52
2023-05-12T14:47:08.950Z,6.71
2023-05-12T14:49:35.774Z,6.82
2023-05-12T14:52:03.029Z,6.73
2023-05-12T14:54:29.607Z,6.42
2023-05-12T14:56:56.454Z,6.82
2023-05-12T14:59:23.015Z,6.50
2023-05-12T15:01:50.063Z,6.40
2023-05-12T15:04:16.888Z,6.43
2023-05-12T15:06:43.475Z,6.30
2023-05-12T15:09:09.991Z,6.19
2023-05-12T15:11:36.874Z,6.29
2023-05-12T15:14:04.605Z,6.29
2023-05-12T15:16:33.014Z,6.33
2023-05-12T15:18:59.759Z,6.24
2023-05-12T15:21:26.425Z,6.42
2023-05-12T15:23:52.937Z,6.20
2023-05-12T15:26:32.205Z,6.19
2023-05-12T15:29:00.675Z,6.39
2023-05-12T15:31:30.321Z,6.73
2023-05-12T15:33:57.490Z,6.35
2023-05-12T15:36:24.953Z,6.27
2023-05-12T15:38:51.693Z,6.45
2023-05-12T15:41:18.262Z,6.29
2023-05-12T15:43:44.859Z,6.29
2023-05-12T15:46:11.695Z,6.91
2023-05-12T15:48:39.419Z,7.20
2023-05-12T15:51:06.624Z,7.74
2023-05-12T15:53:33.374Z,7.74
2023-05-12T15:56:04.439Z,8.59
2023-05-12T15:58:31.412Z,8.79
2023-05-12T16:00:58.582Z,8.66
2023-05-12T16:03:25.358Z,9.30
2023-05-12T16:05:52.067Z,9.20
2023-05-12T16:08:18.870Z,9.65
2023-05-12T16:10:45.512Z,9.48
2023-05-12T16:13:12.160Z,9.96
2023-05-12T16:15:38.718Z,9.48
2023-05-12T16:18:07.039Z,9.07
2023-05-12T16:20:35.864Z,8.67
2023-05-12T16:23:02.605Z,7.99
2023-05-12T16:25:29.191Z,8.42
2023-05-12T16:27:55.960Z,8.80
2023-05-12T16:30:22.631Z,8.71
2023-05-12T16:32:49.275Z,8.45
2023-05-12T16:35:16.465Z,8.76
2023-05-12T16:37:43.035Z,8.31
2023-05-12T16:40:09.823Z,8.24
2023-05-12T16:42:36.609Z,8.54
2023-05-12T16:45:03.381Z,8.38
2023-05-12T16:47:30.050Z,8.67
2023-05-12T16:49:58.147Z,8.67
2023-05-12T16:52:25.490Z,8.81
2023-05-12T16:54:53.131Z,9.18
2023-05-12T16:57:20.156Z,9.59
2023-05-12T16:59:48.339Z,9.49
2023-05-12T17:02:15.650Z,9.60
2023-05-12T17:04:42.565Z,9.44
2023-05-12T17:07:09.668Z,9.73
2023-05-12T17:09:36.323Z,9.47
2023-05-12T17:12:04.330Z,10.33
2023-05-12T17:14:31.088Z,9.99
2023-05-12T17:16:57.757Z,9.79
2023-05-12T17:19:24.449Z,10.07
2023-05-12T17:21:51.100Z,10.44
2023-05-12T17:24:17.711Z,10.20
2023-05-12T17:26:44.885Z,10.22
2023-05-12T17:29:11.680Z,10.51
2023-05-12T17:31:38.507Z,10.52
2023-05-12T17:34:05.241Z,10.77
2023-05-12T17:36:31.860Z,10.57
2023-05-12T17:38:58.429Z,10.67
2023-05-12T17:41:26.031Z,10.91
2023-05-12T17:43:53.716Z,10.72
2023-05-12T17:46:20.278Z,10.33
2023-05-12T17:48:46.834Z,10.87
2023-05-12T17:51:13.494Z,10.77
2023-05-12T17:53:40.107Z,10.81
2023-05-12T17:56:06.815Z,10.78
2023-05-12T17:58:33.662Z,10.44
2023-05-12T18:01:00.257Z,10.61
2023-05-12T18:03:26.899Z,10.70
2023-05-12T18:05:54.320Z,10.16
2023-05-12T18:08:21.520Z,10.31
2023-05-12T18:10:48.049Z,10.68
2023-05-12T18:13:15.374Z,11.00
2023-05-12T18:15:42.436Z,10.19
2023-05-12T18:18:10.030Z,10.03
2023-05-12T18:20:36.711Z,9.77
2023-05-12T18:23:03.244Z,9.93
2023-05-12T18:25:29.814Z,10.05
2023-05-12T18:27:56.402Z,9.89
2023-05-12T18:30:22.928Z,9.55
2023-05-12T18:32:49.581Z,9.55
2023-05-12T18:35:16.649Z,9.49
2023-05-12T18:37:43.266Z,8.30
2023-05-12T18:40:10.341Z,7.81
2023-05-12T18:42:37.058Z,7.63
2023-05-12T18:45:03.952Z,7.24
2023-05-12T18:47:30.631Z,7.51
2023-05-12T18:49:57.172Z,7.66
2023-05-12T18:52:23.777Z,7.57
2023-05-12T18:54:50.372Z,7.33
2023-05-12T18:57:17.309Z,7.51
2023-05-12T18:59:43.976Z,7.38
2023-05-12T19:02:10.812Z,7.37
2023-05-12T19:04:38.060Z,7.42
2023-05-12T19:07:06.549Z,7.31
2023-05-12T19:09:33.101Z,7.37
2023-05-12T19:11:59.712Z,7.75
2023-05-12T19:14:26.286Z,7.85
2023-05-12T19:16:53.422Z,8.01
2023-05-12T19:19:19.970Z,8.07
2023-05-12T19:21:46.588Z,8.10
2023-05-12T19:24:13.495Z,8.26
2023-05-12T19:26:40.084Z,8.34
2023-05-12T19:29:07.100Z,8.34
2023-05-12T19:31:34.385Z,8.39
2023-05-12T19:34:00.971Z,8.94
2023-05-12T19:36:29.201Z,8.75
2023-05-12T19:38:59.502Z,9.05
2023-05-12T19:41:29.134Z,8.97
2023-05-12T19:43:56.055Z,8.94
2023-05-12T19:46:22.738Z,8.79
2023-05-12T19:48:49.669Z,8.72
2023-05-12T19:51:16.289Z,8.44
2023-05-12T19:53:43.590Z,8.61
2023-05-12T19:56:10.239Z,8.61
2023-05-12T19:58:36.790Z,8.67
2023-05-12T20:01:03.383Z,9.35
2023-05-12T20:03:30.678Z,9.07
2023-05-12T20:05:58.518Z,9.05
2023-05-12T20:08:25.037Z,9.51
2023-05-12T20:10:51.673Z,9.60
2023-05-12T20:13:18.233Z,9.50
2023-05-12T20:15:45.104Z,9.54
2023-05-12T20:18:14.292Z,9.90
2023-05-12T20:20:43.037Z,9.70
2023-05-12T20:23:09.850Z,10.06
2023-05-12T20:25:36.622Z,10.02
2023-05-12T20:28:03.226Z,10.38
2023-05-12T20:30:29.883Z,10.32
2023-05-12T20:32:56.558Z,10.95
2023-05-12T20:35:23.483Z,10.68
2023-05-12T20:37:50.557Z,10.90
2023-05-12T20:40:17.149Z,10.90
2023-05-12T20:42:45.868Z,11.21
2023-05-12T20:45:13.066Z,11.17
2023-05-12T20:47:39.895Z,12.00
2023-05-12T20:50:08.142Z,12.44
2023-05-12T20:52:39.349Z,12.19
2023-05-12T20:55:06.926Z,11.88
2023-05-12T20:57:33.632Z,11.80
2023-05-12T21:00:00.535Z,11.82
2023-05-12T21:02:28.565Z,11.91
2023-05-12T21:04:55.751Z,12.11
2023-05-12T21:07:22.351Z,11.58
2023-05-12T21:09:49.221Z,11.97
2023-05-12T21:12:15.951Z,11.70
2023-05-12T21:14:45.020Z,11.96
2023-05-12T21:17:12.303Z,12.78
2023-05-12T21:19:40.162Z,12.52
2023-05-12T21:22:07.498Z,12.22
2023-05-12T21:24:34.137Z,12.70
2023-05-12T21:27:05.327Z,13.26
2023-05-12T21:29:32.870Z,13.04
2023-05-12T21:31:59.901Z,12.41
2023-05-12T21:34:26.980Z,12.99
2023-05-12T21:36:54.555Z,13.00
2023-05-12T21:39:21.864Z,12.48
2023-05-12T21:41:48.570Z,12.62
2023-05-12T21:44:15.293Z,12.58
2023-05-12T21:46:42.653Z,12.16
2023-05-12T21:49:09.353Z,12.11
2023-05-12T21:51:35.971Z,12.09
2023-05-12T21:54:02.585Z,12.17
2023-05-12T21:56:29.202Z,12.09
2023-05-12T21:58:55.844Z,12.43
2023-05-12T22:01:22.943Z,12.54
2023-05-12T22:03:49.791Z,12.41
2023-05-12T22:06:16.963Z,12.71
2023-05-12T22:08:43.579Z,12.73
2023-05-12T22:11:11.114Z,12.46
2023-05-12T22:13:37.952Z,12.16
2023-05-12T22:16:04.816Z,12.75
2023-05-12T22:18:31.740Z,12.03
2023-05-12T22:20:58.860Z,12.05
2023-05-12T22:23:25.579Z,11.59
2023-05-12T22:25:52.173Z,11.36
2023-05-12T22:28:18.734Z,11.11
2023-05-12T22:30:45.435Z,11.30
2023-05-12T22:33:12.034Z,11.15
2023-05-12T22:35:38.637Z,10.92
2023-05-12T22:38:05.652Z,11.12
2023-05-12T22:40:33.449Z,10.55
2023-05-12T22:43:00.045Z,10.17
2023-05-12T22:45:26.662Z,10.37
2023-05-12T22:47:53.405Z,10.09
2023-05-12T22:50:20.724Z,9.96
2023-05-12T22:52:47.464Z,10.14
2023-05-12T22:55:14.045Z,10.00
2023-05-12T22:57:41.052Z,10.36
2023-05-12T23:00:08.179Z,10.31
2023-05-12T23:02:34.759Z,10.80
2023-05-12T23:05:03.890Z,10.36
2023-05-12T23:07:30.502Z,10.60
2023-05-12T23:09:57.055Z,10.33
2023-05-12T23:12:23.612Z,10.44
2023-05-12T23:14:50.588Z,10.11
2023-05-12T23:17:17.108Z,10.21
2023-05-12T23:19:43.692Z,10.26
2023-05-12T23:22:10.203Z,10.05
2023-05-12T23:24:36.973Z,10.05
2023-05-12T23:27:04.298Z,10.36
2023-05-12T23:29:30.964Z,10.44
2023-05-12T23:31:58.659Z,10.44
2023-05-12T23:34:25.532Z,10.36
2023-05-12T23:36:52.093Z,10.30
2023-05-12T23:39:18.642Z,10.09
2023-05-12T23:41:45.512Z,10.28
2023-05-12T23:44:12.302Z,10.30
2023-05-12T23:46:38.973Z,10.37
2023-05-12T23:49:05.544Z,10.22
2023-05-12T23:51:32.793Z,10.08
2023-05-12T23:53:59.342Z,10.68
2023-05-12T23:56:25.847Z,9.85
2023-05-12T23:58:52.373Z,10.01
